createdAt,value
2022-12-09T00:03:42.345Z,79.26
2022-12-09T00:08:40.493Z,79.24
2022-12-09T00:13:38.482Z,79.23
2022-12-09T00:18:37.562Z,79.17
2022-12-09T00:23:34.594Z,78.81
2022-12-09T00:28:32.380Z,79.09
2022-12-09T00:33:30.373Z,78.24
2022-12-09T00:38:28.051Z,78.57
2022-12-09T00:43:25.393Z,78.28
2022-12-09T00:48:26.293Z,78.15
2022-12-09T00:53:23.583Z,78.15
2022-12-09T00:58:20.930Z,78.37
2022-12-09T01:03:18.782Z,78.25
2022-12-09T01:08:17.524Z,78.14
2022-12-09T01:13:16.498Z,78.30
2022-12-09T01:18:16.841Z,78.70
2022-12-09T01:23:17.419Z,78.36
2022-12-09T01:28:17.611Z,78.47
2022-12-09T01:33:15.081Z,78.65
2022-12-09T01:38:12.055Z,79.10
2022-12-09T01:43:17.578Z,78.64
2022-12-09T01:48:16.628Z,78.84
2022-12-09T01:53:15.277Z,78.98
2022-12-09T01:58:14.944Z,78.47
2022-12-09T02:03:13.716Z,78.74
2022-12-09T02:08:14.523Z,78.74
2022-12-09T02:13:26.345Z,78.68
2022-12-09T02:18:29.807Z,78.50
2022-12-09T02:23:33.105Z,78.67
2022-12-09T02:29:16.119Z,78.14
2022-12-09T02:34:17.414Z,78.50
2022-12-09T02:39:24.595Z,78.48
2022-12-09T02:44:24.337Z,78.10
2022-12-09T02:49:25.611Z,77.66
2022-12-09T02:54:24.506Z,77.58
2022-12-09T02:59:23.226Z,77.70
2022-12-09T03:04:24.123Z,77.74
2022-12-09T03:09:27.511Z,77.83
2022-12-09T03:14:30.152Z,77.81
2022-12-09T03:19:33.885Z,77.71
2022-12-09T03:24:35.676Z,77.89
2022-12-09T03:29:37.487Z,78.05
2022-12-09T03:34:38.881Z,78.03
2022-12-09T03:39:38.735Z,77.84
2022-12-09T03:44:39.624Z,77.70
2022-12-09T03:49:38.985Z,77.81
2022-12-09T03:54:42.678Z,78.11
2022-12-09T03:59:43.158Z,77.98
2022-12-09T04:04:42.159Z,77.98
2022-12-09T04:09:39.655Z,77.66
2022-12-09T04:14:37.177Z,77.69
2022-12-09T04:19:34.182Z,77.59
2022-12-09T04:24:32.361Z,77.48
2022-12-09T04:29:29.648Z,77.31
2022-12-09T04:34:27.802Z,77.25
2022-12-09T04:39:25.969Z,77.25
2022-12-09T04:44:23.908Z,77.08
2022-12-09T04:49:21.202Z,77.31
2022-12-09T04:54:19.678Z,77.28
2022-12-09T04:59:16.956Z,77.44
2022-12-09T05:04:15.483Z,77.16
2022-12-09T05:09:13.687Z,77.44
2022-12-09T05:14:11.863Z,77.44
2022-12-09T05:19:10.383Z,77.28
2022-12-09T05:24:08.873Z,77.11
2022-12-09T05:29:06.494Z,77.11
2022-12-09T05:34:04.176Z,77.21
2022-12-09T05:39:06.180Z,77.22
2022-12-09T05:44:04.152Z,77.13
2022-12-09T05:49:01.361Z,77.26
2022-12-09T05:54:02.765Z,77.27
2022-12-09T05:59:01.941Z,76.92
2022-12-09T06:04:38.511Z,77.02
2022-12-09T06:09:36.280Z,77.02
2022-12-09T06:14:33.717Z,77.12
2022-12-09T06:19:31.838Z,77.15
2022-12-09T06:24:30.866Z,77.29
2022-12-09T06:29:28.234Z,77.37
2022-12-09T06:34:25.468Z,76.70
2022-12-09T06:39:23.535Z,77.11
2022-12-09T06:44:23.852Z,77.08
2022-12-09T06:49:21.522Z,76.99
2022-12-09T06:54:18.787Z,76.85
2022-12-09T06:59:16.839Z,76.76
2022-12-09T07:04:17.796Z,76.38
2022-12-09T07:09:17.700Z,76.23
2022-12-09T07:14:18.394Z,76.26
2022-12-09T07:19:24.197Z,76.21
2022-12-09T07:24:22.867Z,76.16
2022-12-09T07:29:21.602Z,76.07
2022-12-09T07:34:20.493Z,76.12
2022-12-09T07:39:21.218Z,75.53
2022-12-09T07:44:18.731Z,75.98
2022-12-09T07:49:19.444Z,75.51
2022-12-09T07:54:21.350Z,75.28
2022-12-09T07:59:19.103Z,75.47
2022-12-09T08:04:17.209Z,75.07
2022-12-09T08:09:17.733Z,74.67
2022-12-09T08:14:14.995Z,74.90
2022-12-09T08:19:14.672Z,74.75
2022-12-09T08:24:19.080Z,74.89
2022-12-09T08:29:16.835Z,75.05
2022-12-09T08:34:15.332Z,74.91
2022-12-09T08:39:14.198Z,74.77
2022-12-09T08:44:15.301Z,74.25
2022-12-09T08:49:49.954Z,74.29
2022-12-09T08:54:56.826Z,74.41
2022-12-09T08:59:54.457Z,73.69
2022-12-09T09:04:51.855Z,73.70
2022-12-09T09:09:49.617Z,73.47
2022-12-09T09:14:47.699Z,73.40
2022-12-09T09:19:47.146Z,73.51
2022-12-09T09:24:59.547Z,73.20
2022-12-09T09:29:59.440Z,73.27
2022-12-09T09:34:56.862Z,73.40
2022-12-09T09:40:21.074Z,73.16
2022-12-09T09:45:21.397Z,73.09
2022-12-09T09:50:27.637Z,72.91
2022-12-09T09:55:44.654Z,73.26
2022-12-09T10:00:49.253Z,72.76
2022-12-09T10:05:53.074Z,73.50
2022-12-09T10:11:01.701Z,73.87
2022-12-09T10:16:09.373Z,73.89
2022-12-09T10:21:17.184Z,73.14
2022-12-09T10:26:19.676Z,73.21
2022-12-09T10:31:20.402Z,73.02
2022-12-09T10:36:26.795Z,71.16
2022-12-09T10:41:59.955Z,72.27
2022-12-09T10:47:01.588Z,72.76
2022-12-09T10:52:01.624Z,73.89
2022-12-09T10:57:23.401Z,74.39
2022-12-09T11:02:22.983Z,74.18
2022-12-09T11:07:26.101Z,72.87
2022-12-09T11:12:39.907Z,72.59
2022-12-09T11:17:43.124Z,73.57
2022-12-09T11:22:42.465Z,74.31
2022-12-09T11:27:44.132Z,76.16
2022-12-09T11:32:59.782Z,77.66
2022-12-09T11:37:59.229Z,78.59
2022-12-09T11:42:58.025Z,78.95
2022-12-09T11:48:29.863Z,78.61
2022-12-09T11:53:28.307Z,78.81
2022-12-09T11:58:28.894Z,78.47
2022-12-09T12:03:35.152Z,77.92
2022-12-09T12:08:38.918Z,77.53
2022-12-09T12:13:40.082Z,77.72
2022-12-09T12:18:45.252Z,78.44
2022-12-09T12:23:57.560Z,79.23
2022-12-09T12:29:07.864Z,79.95
2022-12-09T12:34:37.307Z,79.83
2022-12-09T12:39:48.606Z,79.58
2022-12-09T12:45:10.284Z,78.84
2022-12-09T12:50:26.572Z,78.67
2022-12-09T12:55:41.207Z,78.29
2022-12-09T13:00:51.111Z,78.65
2022-12-09T13:05:52.551Z,78.46
2022-12-09T13:10:53.553Z,79.72
2022-12-09T13:15:54.715Z,81.31
2022-12-09T13:20:54.536Z,82.76
2022-12-09T13:26:23.745Z,83.61
2022-12-09T13:31:29.255Z,84.42
2022-12-09T13:36:37.130Z,84.83
2022-12-09T13:41:58.967Z,84.43
2022-12-09T13:47:27.879Z,83.94
2022-12-09T13:52:42.965Z,83.91
2022-12-09T13:57:50.153Z,83.80
2022-12-09T14:03:01.503Z,82.98
2022-12-09T14:08:04.412Z,83.22
2022-12-09T14:13:21.502Z,83.10
2022-12-09T14:18:32.951Z,83.46
2022-12-09T14:23:32.116Z,83.50
2022-12-09T14:29:00.214Z,83.79
2022-12-09T14:33:57.151Z,83.50
2022-12-09T14:39:24.157Z,83.95
2022-12-09T14:44:28.769Z,85.02
2022-12-09T14:49:29.423Z,85.71
2022-12-09T14:54:32.370Z,87.02
2022-12-09T14:59:32.013Z,88.21
2022-12-09T15:04:31.689Z,89.36
2022-12-09T15:09:30.114Z,89.31
2022-12-09T15:14:27.831Z,90.04
2022-12-09T15:20:01.285Z,89.77
2022-12-09T15:24:53.024Z,90.19
2022-12-09T15:29:51.181Z,89.33
2022-12-09T15:34:53.224Z,89.88
2022-12-09T15:39:58.862Z,90.54
2022-12-09T15:45:04.070Z,90.96
2022-12-09T15:50:10.828Z,91.75
2022-12-09T15:55:14.645Z,91.47
2022-12-09T16:00:13.234Z,92.34
2022-12-09T16:05:11.375Z,93.04
2022-12-09T16:10:14.276Z,93.47
2022-12-09T16:15:15.268Z,93.29
2022-12-09T16:20:22.268Z,93.62
2022-12-09T16:25:25.583Z,93.44
2022-12-09T16:30:29.495Z,93.52
2022-12-09T16:35:39.884Z,94.39
2022-12-09T16:41:02.365Z,94.07
2022-12-09T16:46:03.393Z,94.48
2022-12-09T16:51:12.975Z,93.55
2022-12-09T16:56:18.965Z,94.13
2022-12-09T17:01:18.863Z,92.92
2022-12-09T17:06:18.185Z,93.86
2022-12-09T17:11:19.816Z,93.97
2022-12-09T17:16:55.332Z,94.11
2022-12-09T17:21:55.247Z,93.97
2022-12-09T17:27:03.158Z,93.80
2022-12-09T17:32:01.633Z,93.32
2022-12-09T17:36:59.330Z,92.88
2022-12-09T17:41:59.676Z,93.48
2022-12-09T17:47:02.300Z,93.73
2022-12-09T17:52:00.446Z,93.76
2022-12-09T17:56:59.315Z,93.74
2022-12-09T18:01:59.986Z,93.71
2022-12-09T18:06:57.536Z,93.92
2022-12-09T18:11:57.614Z,93.39
2022-12-09T18:16:57.148Z,93.43
2022-12-09T18:22:05.595Z,93.42
2022-12-09T18:27:08.832Z,92.99
2022-12-09T18:32:07.247Z,92.90
2022-12-09T18:37:13.181Z,92.72
2022-12-09T18:42:10.163Z,91.86
2022-12-09T18:47:08.199Z,92.33
2022-12-09T18:52:05.417Z,91.71
2022-12-09T18:57:03.288Z,91.66
2022-12-09T19:02:00.190Z,92.32
2022-12-09T19:06:59.367Z,91.74
2022-12-09T19:11:56.552Z,91.69
2022-12-09T19:16:54.118Z,90.87
2022-12-09T19:21:52.549Z,89.92
2022-12-09T19:26:52.955Z,89.96
2022-12-09T19:31:53.199Z,88.77
2022-12-09T19:36:52.517Z,88.20
2022-12-09T19:41:51.463Z,88.39
2022-12-09T19:46:48.715Z,88.69
2022-12-09T19:51:46.599Z,87.52
2022-12-09T19:56:44.131Z,87.18
2022-12-09T20:01:43.763Z,86.04
2022-12-09T20:06:41.960Z,86.56
2022-12-09T20:11:39.932Z,86.76
2022-12-09T20:16:41.577Z,86.63
2022-12-09T20:21:39.899Z,88.14
2022-12-09T20:26:38.187Z,88.54
2022-12-09T20:31:37.215Z,89.21
2022-12-09T20:36:36.708Z,89.46
2022-12-09T20:41:33.614Z,89.79
2022-12-09T20:46:35.035Z,89.33
2022-12-09T20:51:36.829Z,90.12
2022-12-09T20:56:34.947Z,90.38
2022-12-09T21:01:45.208Z,90.22
2022-12-09T21:06:43.151Z,90.62
2022-12-09T21:11:40.433Z,90.86
2022-12-09T21:16:42.659Z,91.02
2022-12-09T21:21:42.266Z,90.35
2022-12-09T21:26:40.658Z,89.70
2022-12-09T21:31:40.201Z,90.22
2022-12-09T21:36:40.245Z,89.86
2022-12-09T21:41:37.715Z,90.06
2022-12-09T21:46:36.772Z,90.09
2022-12-09T21:51:34.784Z,90.44
2022-12-09T21:56:35.122Z,89.91
2022-12-09T22:01:34.060Z,89.50
2022-12-09T22:06:31.690Z,88.75
2022-12-09T22:11:31.100Z,88.49
2022-12-09T22:16:30.730Z,87.36
2022-12-09T22:21:30.311Z,87.04
2022-12-09T22:26:28.962Z,86.56
2022-12-09T22:31:28.297Z,85.60
2022-12-09T22:36:28.098Z,85.51
2022-12-09T22:41:27.492Z,85.90
2022-12-09T22:46:27.715Z,85.80
2022-12-09T22:51:28.581Z,85.75
2022-12-09T22:56:29.074Z,85.49
2022-12-09T23:01:30.336Z,84.89
2022-12-09T23:06:28.781Z,84.54
2022-12-09T23:11:27.892Z,83.03
2022-12-09T23:16:26.619Z,82.72
2022-12-09T23:21:25.863Z,82.38
2022-12-09T23:26:25.090Z,82.67
2022-12-09T23:31:26.242Z,82.25
2022-12-09T23:36:26.593Z,83.46
2022-12-09T23:41:24.900Z,83.78
2022-12-09T23:46:25.388Z,84.15
2022-12-09T23:51:24.810Z,84.94
2022-12-09T23:56:23.863Z,85.26
